createdAt,value
2018-08-25T00:00:16.727Z,0
2018-08-25T00:01:26.558Z,0
2018-08-25T00:02:36.652Z,0
2018-08-25T00:03:46.462Z,0
2018-08-25T00:04:56.290Z,0
2018-08-25T00:06:06.375Z,0
2018-08-25T00:07:16.469Z,0
2018-08-25T00:08:26.279Z,0
2018-08-25T00:09:36.089Z,0
2018-08-25T00:10:46.161Z,0
2018-08-25T00:11:56.231Z,0
2018-08-25T00:13:06.334Z,0
2018-08-25T00:14:16.416Z,0
2018-08-25T00:15:26.493Z,0
2018-08-25T00:16:36.576Z,0
2018-08-25T00:17:46.391Z,0
2018-08-25T00:18:56.520Z,0
2018-08-25T00:20:06.331Z,0
2018-08-25T00:21:16.147Z,0
2018-08-25T00:22:26.227Z,0
2018-08-25T00:23:36.319Z,0
2018-08-25T00:24:46.412Z,0
2018-08-25T00:25:56.228Z,0
2018-08-25T00:27:06.047Z,0
2018-08-25T00:28:16.117Z,0
2018-08-25T00:29:26.200Z,0
2018-08-25T00:30:36.282Z,0
2018-08-25T00:31:45.835Z,0
2018-08-25T00:32:55.914Z,0
2018-08-25T00:34:06.013Z,0
2018-08-25T00:35:15.563Z,0
2018-08-25T00:36:25.115Z,0
2018-08-25T00:37:35.197Z,0
2018-08-25T00:38:44.763Z,0
2018-08-25T00:39:54.842Z,0
2018-08-25T00:41:04.645Z,0
2018-08-25T00:42:14.730Z,0
2018-08-25T00:43:24.816Z,0
2018-08-25T00:44:34.868Z,0
2018-08-25T00:45:44.994Z,0
2018-08-25T00:46:55.067Z,0
2018-08-25T00:48:05.312Z,0
2018-08-25T00:49:15.414Z,0
2018-08-25T00:50:25.490Z,0
2018-08-25T00:51:35.369Z,0
2018-08-25T00:52:45.445Z,0
2018-08-25T00:53:55.521Z,0
2018-08-25T00:55:05.598Z,0
2018-08-25T00:56:15.677Z,0
2018-08-25T00:57:25.882Z,0
2018-08-25T00:58:36.018Z,0
2018-08-25T00:59:45.840Z,0
2018-08-25T01:00:55.890Z,0
2018-08-25T01:02:05.727Z,0
2018-08-25T01:03:15.844Z,0
2018-08-25T01:04:25.944Z,0
2018-08-25T01:05:35.754Z,0
2018-08-25T01:06:45.577Z,0
2018-08-25T01:07:55.659Z,0
2018-08-25T01:09:05.786Z,0
2018-08-25T01:10:15.639Z,0
2018-08-25T01:11:25.713Z,0
2018-08-25T01:12:35.793Z,0
2018-08-25T01:13:45.894Z,0
2018-08-25T01:14:55.977Z,0
2018-08-25T01:16:06.063Z,0
2018-08-25T01:17:16.128Z,0
2018-08-25T01:18:26.203Z,0
2018-08-25T01:19:36.013Z,0
2018-08-25T01:20:45.824Z,0
2018-08-25T01:21:55.896Z,0
2018-08-25T01:23:05.989Z,0
2018-08-25T01:24:15.795Z,0
2018-08-25T01:25:25.907Z,0
2018-08-25T01:26:35.999Z,0
2018-08-25T01:27:46.082Z,0
2018-08-25T01:28:56.148Z,0
2018-08-25T01:30:06.229Z,0
2018-08-25T01:31:16.304Z,0
2018-08-25T01:32:26.371Z,0
2018-08-25T01:33:36.200Z,0
2018-08-25T01:34:46.291Z,0
2018-08-25T01:35:56.367Z,0
2018-08-25T01:37:05.919Z,0
2018-08-25T01:38:16.047Z,0
2018-08-25T01:39:26.125Z,0
2018-08-25T01:40:36.185Z,0
2018-08-25T01:41:46.270Z,0
2018-08-25T01:42:56.089Z,0
2018-08-25T01:44:06.176Z,0
2018-08-25T01:45:15.987Z,0
2018-08-25T01:46:26.163Z,0
2018-08-25T01:47:35.983Z,0
2018-08-25T01:48:46.059Z,0
2018-08-25T01:49:56.143Z,0
2018-08-25T01:51:06.225Z,0
2018-08-25T01:52:16.038Z,0
2018-08-25T01:53:26.125Z,0
2018-08-25T01:54:35.939Z,0
2018-08-25T01:55:45.811Z,0
2018-08-25T01:56:55.894Z,0
2018-08-25T01:58:05.991Z,0
2018-08-25T01:59:16.058Z,0
2018-08-25T02:00:25.605Z,0
2018-08-25T02:01:35.742Z,0
2018-08-25T02:02:46.046Z,0
2018-08-25T02:03:55.820Z,0
2018-08-25T02:05:05.904Z,0
2018-08-25T02:06:15.725Z,0
2018-08-25T02:07:25.536Z,0
2018-08-25T02:08:35.350Z,0
2018-08-25T02:09:45.169Z,0
2018-08-25T02:10:55.224Z,0
2018-08-25T02:12:05.140Z,0
2018-08-25T02:13:14.705Z,0
2018-08-25T02:14:24.785Z,0
2018-08-25T02:15:34.606Z,0
2018-08-25T02:16:44.703Z,0
2018-08-25T02:17:54.523Z,0
2018-08-25T02:19:04.597Z,0
2018-08-25T02:20:14.674Z,0
2018-08-25T02:21:24.736Z,0
2018-08-25T02:22:34.806Z,0
2018-08-25T02:23:44.899Z,0
2018-08-25T02:24:54.757Z,0
2018-08-25T02:26:04.842Z,0
2018-08-25T02:27:14.651Z,0
2018-08-25T02:28:25.330Z,0
2018-08-25T02:29:35.422Z,0
2018-08-25T02:30:45.241Z,0
2018-08-25T02:31:55.324Z,0
2018-08-25T02:33:05.397Z,0
2018-08-25T02:34:15.482Z,0
2018-08-25T02:35:25.577Z,0
2018-08-25T02:36:35.724Z,0
2018-08-25T02:37:45.795Z,0
2018-08-25T02:38:56.331Z,0
2018-08-25T02:40:06.428Z,0
2018-08-25T02:41:16.247Z,0
2018-08-25T02:42:26.121Z,0
2018-08-25T02:43:36.202Z,0
2018-08-25T02:44:46.270Z,0
2018-08-25T02:45:56.335Z,0
2018-08-25T02:47:06.472Z,0
2018-08-25T02:48:16.032Z,0
2018-08-25T02:49:26.093Z,0
2018-08-25T02:50:36.174Z,0
2018-08-25T02:51:45.980Z,0
2018-08-25T02:52:56.112Z,0
2018-08-25T02:54:06.170Z,0
2018-08-25T02:55:16.236Z,0
2018-08-25T02:56:26.327Z,0
2018-08-25T02:57:36.149Z,0
2018-08-25T02:58:46.216Z,0
2018-08-25T02:59:56.285Z,0
2018-08-25T03:01:06.351Z,0
2018-08-25T03:02:16.445Z,0
2018-08-25T03:35:19.951Z,0
2018-08-25T03:36:30.028Z,0
2018-08-25T03:37:40.103Z,0
2018-08-25T03:38:50.169Z,0
2018-08-25T03:40:00.343Z,0
2018-08-25T03:41:10.708Z,0
2018-08-25T03:42:20.790Z,0
2018-08-25T03:43:30.862Z,0
2018-08-25T03:44:40.695Z,0
2018-08-25T03:45:50.510Z,0
2018-08-25T03:47:00.348Z,0
2018-08-25T03:48:10.423Z,0
2018-08-25T03:49:20.509Z,0
2018-08-25T03:50:30.573Z,0
2018-08-25T03:51:40.380Z,0
2018-08-25T03:52:50.561Z,0
2018-08-25T03:54:00.391Z,0
2018-08-25T03:55:10.470Z,0
2018-08-25T03:56:20.528Z,0
2018-08-25T03:57:30.613Z,0
2018-08-25T03:58:40.462Z,0
2018-08-25T03:59:50.283Z,0
2018-08-25T04:01:00.884Z,0
2018-08-25T04:02:10.995Z,0
2018-08-25T04:03:21.093Z,0
2018-08-25T04:04:31.149Z,0
2018-08-25T04:05:41.249Z,0
2018-08-25T04:06:51.336Z,0
2018-08-25T04:08:01.417Z,0
2018-08-25T04:09:11.492Z,0
2018-08-25T04:10:21.581Z,0
2018-08-25T04:11:31.649Z,0
2018-08-25T04:12:41.737Z,0
2018-08-25T04:13:51.812Z,0
2018-08-25T04:15:02.495Z,0
2018-08-25T04:16:12.669Z,0
2018-08-25T04:17:22.733Z,0
2018-08-25T04:18:32.787Z,0
2018-08-25T04:19:42.380Z,0
2018-08-25T04:20:52.220Z,0
2018-08-25T04:22:02.362Z,0
2018-08-25T04:23:11.875Z,0
2018-08-25T04:24:21.989Z,0
2018-08-25T04:25:32.071Z,0
2018-08-25T04:26:42.069Z,0
2018-08-25T04:27:51.889Z,0
2018-08-25T04:29:01.989Z,0
2018-08-25T04:30:12.082Z,0
2018-08-25T04:31:21.886Z,0
2018-08-25T04:32:31.963Z,0
2018-08-25T04:33:42.543Z,0
2018-08-25T04:34:52.635Z,0
2018-08-25T04:36:03.252Z,0
2018-08-25T04:37:13.337Z,0
2018-08-25T04:38:23.387Z,0
2018-08-25T04:39:32.937Z,0
2018-08-25T04:40:43.040Z,0
2018-08-25T04:41:53.131Z,0
2018-08-25T04:43:03.206Z,0
2018-08-25T04:44:13.134Z,0
2018-08-25T04:45:22.951Z,0
2018-08-25T04:46:33.026Z,5
2018-08-25T04:47:42.838Z,5
2018-08-25T04:48:52.937Z,5
2018-08-25T04:50:03.016Z,10
2018-08-25T04:51:12.822Z,10
2018-08-25T04:52:22.893Z,10
2018-08-25T04:53:32.696Z,10
2018-08-25T04:54:42.795Z,10
2018-08-25T04:55:52.868Z,10
2018-08-25T04:57:02.817Z,10
2018-08-25T04:58:12.910Z,10
2018-08-25T04:59:22.984Z,15
2018-08-25T05:00:33.064Z,15
2018-08-25T05:01:43.210Z,15
2018-08-25T05:02:53.062Z,15
2018-08-25T05:04:03.145Z,10
2018-08-25T05:05:13.242Z,10
2018-08-25T05:06:23.391Z,10
2018-08-25T05:07:33.666Z,10
2018-08-25T05:08:43.811Z,15
2018-08-25T05:09:53.893Z,15
2018-08-25T05:11:03.976Z,15
2018-08-25T05:12:14.069Z,15
2018-08-25T05:13:24.143Z,15
2018-08-25T05:14:34.258Z,15
2018-08-25T05:15:44.074Z,15
2018-08-25T05:16:54.143Z,15
2018-08-25T05:18:04.220Z,15
2018-08-25T05:19:14.280Z,15
2018-08-25T05:20:24.345Z,10
2018-08-25T05:21:33.903Z,10
2018-08-25T05:22:43.989Z,10
2018-08-25T05:23:53.548Z,10
2018-08-25T05:25:03.647Z,10
2018-08-25T05:26:13.745Z,10
2018-08-25T05:27:23.816Z,10
2018-08-25T05:28:33.895Z,10
2018-08-25T05:29:43.978Z,5
2018-08-25T05:30:54.046Z,5
2018-08-25T05:32:03.870Z,5
2018-08-25T05:33:14.061Z,5
2018-08-25T05:34:24.137Z,5
2018-08-25T05:35:34.220Z,5
2018-08-25T05:36:44.291Z,5
2018-08-25T05:37:54.406Z,5
2018-08-25T05:39:04.506Z,10
2018-08-25T05:40:14.594Z,10
2018-08-25T05:41:24.424Z,10
2018-08-25T05:42:34.506Z,10
2018-08-25T05:43:44.617Z,10
2018-08-25T05:44:54.691Z,10
2018-08-25T05:46:04.776Z,10
2018-08-25T05:47:14.856Z,15
2018-08-25T05:48:24.940Z,15
2018-08-25T05:49:35.011Z,20
2018-08-25T05:50:45.119Z,20
2018-08-25T05:51:55.226Z,25
2018-08-25T05:53:05.085Z,30
2018-08-25T05:54:15.196Z,35
2018-08-25T05:55:25.025Z,35
2018-08-25T05:56:34.833Z,35
2018-08-25T05:57:45.413Z,35
2018-08-25T05:58:55.059Z,35
2018-08-25T06:00:05.124Z,35
2018-08-25T06:01:15.209Z,35
2018-08-25T06:02:25.305Z,35
2018-08-25T06:03:35.368Z,35
2018-08-25T06:04:45.441Z,35
2018-08-25T06:05:55.254Z,35
2018-08-25T06:07:05.338Z,30
2018-08-25T06:08:15.423Z,30
2018-08-25T06:09:25.509Z,30
2018-08-25T06:10:35.339Z,25
2018-08-25T06:11:45.451Z,25
2018-08-25T06:12:55.298Z,25
2018-08-25T06:14:05.626Z,25
2018-08-25T06:15:15.442Z,20
2018-08-25T06:16:25.525Z,20
2018-08-25T06:17:35.145Z,20
2018-08-25T06:18:44.976Z,20
2018-08-25T06:19:55.068Z,20
2018-08-25T06:21:05.205Z,25
2018-08-25T06:22:15.294Z,25
2018-08-25T06:23:25.371Z,30
2018-08-25T06:24:35.494Z,35
2018-08-25T06:25:45.575Z,40
2018-08-25T06:26:55.675Z,45
2018-08-25T06:28:05.761Z,45
2018-08-25T06:29:15.595Z,50
2018-08-25T06:30:25.852Z,55
2018-08-25T06:31:35.929Z,55
2018-08-25T06:32:45.991Z,50
2018-08-25T06:33:56.074Z,50
2018-08-25T06:35:06.158Z,50
2018-08-25T06:36:16.786Z,50
2018-08-25T06:37:26.617Z,50
2018-08-25T06:38:36.778Z,50
2018-08-25T06:39:46.870Z,50
2018-08-25T06:40:56.960Z,55
2018-08-25T06:42:07.034Z,55
2018-08-25T06:43:17.118Z,60
2018-08-25T06:44:26.923Z,70
2018-08-25T06:45:36.754Z,80
2018-08-25T06:46:46.833Z,80
2018-08-25T06:47:56.906Z,90
2018-08-25T06:49:07.010Z,100
2018-08-25T06:50:17.077Z,105
2018-08-25T06:51:27.184Z,110
2018-08-25T06:52:37.246Z,125
2018-08-25T06:53:47.318Z,135
2018-08-25T06:54:57.407Z,135
2018-08-25T06:56:08.046Z,135
2018-08-25T06:57:18.155Z,140
2018-08-25T06:58:28.244Z,145
2018-08-25T06:59:38.181Z,155
2018-08-25T07:00:48.312Z,160
2018-08-25T07:01:58.368Z,150
2018-08-25T07:03:08.444Z,145
2018-08-25T07:04:18.023Z,140
2018-08-25T07:05:28.092Z,130
2018-08-25T07:06:37.887Z,125
2018-08-25T07:07:47.759Z,125
2018-08-25T07:08:57.864Z,115
2018-08-25T07:10:07.929Z,115
2018-08-25T07:11:18.012Z,110
2018-08-25T07:12:28.086Z,115
2018-08-25T07:13:37.902Z,115
2018-08-25T07:14:47.988Z,120
2018-08-25T07:15:58.060Z,125
2018-08-25T07:17:08.168Z,140
2018-08-25T07:18:18.248Z,150
2018-08-25T07:19:28.320Z,160
2018-08-25T07:20:38.148Z,170
2018-08-25T07:21:48.219Z,160
2018-08-25T07:22:58.324Z,155
2018-08-25T07:24:08.143Z,150
2018-08-25T07:25:17.949Z,150
2018-08-25T07:26:28.082Z,140
2018-08-25T07:27:37.909Z,135
2018-08-25T07:28:48.003Z,135
2018-08-25T07:29:58.120Z,125
2018-08-25T07:31:08.217Z,115
2018-08-25T07:32:18.773Z,115
2018-08-25T07:33:28.856Z,110
2018-08-25T07:34:38.759Z,110
2018-08-25T07:35:48.325Z,120
2018-08-25T07:36:58.131Z,130
2018-08-25T07:38:08.007Z,145
2018-08-25T07:39:18.107Z,165
2018-08-25T07:40:28.213Z,185
2018-08-25T07:41:38.084Z,210
2018-08-25T07:42:47.365Z,235
2018-08-25T07:43:57.195Z,270
2018-08-25T07:45:07.403Z,255
2018-08-25T07:46:17.523Z,270
2018-08-25T07:47:27.354Z,255
2018-08-25T07:48:37.603Z,250
2018-08-25T07:49:48.111Z,260
2018-08-25T07:50:58.239Z,225
2018-08-25T07:52:08.385Z,220
2018-08-25T07:53:18.453Z,245
2018-08-25T07:54:28.533Z,220
2018-08-25T07:55:38.625Z,225
2018-08-25T07:56:48.718Z,255
2018-08-25T07:57:58.889Z,260
2018-08-25T07:59:09.088Z,265
2018-08-25T08:00:19.227Z,270
2018-08-25T08:01:29.340Z,255
2018-08-25T08:02:39.173Z,250
2018-08-25T08:03:49.000Z,230
2018-08-25T08:04:59.352Z,240
2018-08-25T08:06:09.153Z,280
2018-08-25T08:07:18.980Z,280
2018-08-25T08:08:29.062Z,280
2018-08-25T08:09:39.193Z,240
2018-08-25T08:10:48.999Z,245
2018-08-25T08:11:59.685Z,240
2018-08-25T08:13:09.430Z,245
2018-08-25T08:14:19.522Z,245
2018-08-25T08:15:29.335Z,260
2018-08-25T08:16:39.246Z,300
2018-08-25T08:17:49.322Z,300
2018-08-25T08:18:59.419Z,280
2018-08-25T08:20:09.525Z,280
2018-08-25T08:21:19.621Z,285
2018-08-25T08:22:28.920Z,290
2018-08-25T08:23:39.016Z,285
2018-08-25T08:24:48.915Z,280
2018-08-25T08:25:59.037Z,280
2018-08-25T08:27:09.235Z,270
2018-08-25T08:28:18.796Z,265
2018-08-25T08:29:28.872Z,260
2018-08-25T08:30:38.693Z,260
2018-08-25T08:31:48.536Z,250
2018-08-25T08:32:58.832Z,250
2018-08-25T08:34:08.940Z,240
2018-08-25T08:35:19.016Z,230
2018-08-25T08:36:29.105Z,225
2018-08-25T08:37:38.922Z,220
2018-08-25T08:38:49.063Z,215
2018-08-25T08:39:58.652Z,210
2018-08-25T08:41:08.731Z,205
2018-08-25T08:42:18.647Z,200
2018-08-25T08:43:28.787Z,195
2018-08-25T08:44:38.921Z,195
2018-08-25T08:45:49.003Z,200
2018-08-25T08:46:59.086Z,200
2018-08-25T08:48:09.182Z,205
2018-08-25T08:49:19.266Z,205
2018-08-25T08:50:29.343Z,210
2018-08-25T08:51:39.456Z,210
2018-08-25T08:52:49.002Z,210
2018-08-25T08:53:59.072Z,205
2018-08-25T08:55:09.188Z,200
2018-08-25T08:56:19.304Z,195
2018-08-25T08:57:29.163Z,190
2018-08-25T08:58:39.267Z,190
2018-08-25T08:59:49.357Z,195
2018-08-25T09:00:59.181Z,195
2018-08-25T09:02:09.383Z,195
2018-08-25T09:03:19.679Z,190
2018-08-25T09:04:29.852Z,190
2018-08-25T09:13:41.519Z,155
2018-08-25T09:14:51.411Z,150
2018-08-25T09:16:01.293Z,140
2018-08-25T09:17:11.405Z,135
2018-08-25T09:18:21.507Z,125
2018-08-25T09:19:31.900Z,120
2018-08-25T09:20:42.132Z,115
2018-08-25T09:21:52.263Z,115
2018-08-25T09:23:02.374Z,120
2018-08-25T09:24:12.476Z,115
2018-08-25T09:25:22.301Z,110
2018-08-25T09:26:32.415Z,105
2018-08-25T09:27:42.700Z,100
2018-08-25T09:28:53.269Z,100
2018-08-25T09:30:03.362Z,100
2018-08-25T09:31:13.518Z,100
2018-08-25T09:32:23.623Z,100
2018-08-25T09:33:33.707Z,100
2018-08-25T09:34:43.792Z,100
2018-08-25T09:35:54.498Z,100
2018-08-25T09:37:04.921Z,110
2018-08-25T09:38:14.800Z,105
2018-08-25T09:39:25.492Z,105
2018-08-25T09:40:35.591Z,110
2018-08-25T09:41:46.043Z,110
2018-08-25T09:42:56.196Z,115
2018-08-25T09:44:06.030Z,115
2018-08-25T09:45:16.131Z,120
2018-08-25T09:46:25.981Z,120
2018-08-25T09:47:36.125Z,115
2018-08-25T09:48:46.259Z,115
2018-08-25T09:49:56.372Z,115
2018-08-25T09:51:06.895Z,110
2018-08-25T09:52:16.990Z,110
2018-08-25T09:53:27.285Z,105
2018-08-25T09:54:37.247Z,100
2018-08-25T09:55:47.080Z,100
2018-08-25T09:56:57.188Z,100
2018-08-25T09:58:07.284Z,100
2018-08-25T09:59:17.800Z,95
2018-08-25T10:00:27.909Z,95
2018-08-25T10:01:37.738Z,95
2018-08-25T10:02:47.571Z,95
2018-08-25T10:03:57.603Z,95
2018-08-25T10:05:07.496Z,95
2018-08-25T10:06:17.712Z,100
2018-08-25T10:07:27.806Z,100
2018-08-25T10:08:37.644Z,105
2018-08-25T10:09:47.734Z,105
2018-08-25T10:10:58.224Z,105
2018-08-25T10:12:07.916Z,110
2018-08-25T10:13:18.017Z,115
2018-08-25T10:14:28.129Z,120
2018-08-25T10:15:38.237Z,120
2018-08-25T10:16:48.569Z,125
2018-08-25T10:17:58.541Z,125
2018-08-25T10:19:08.648Z,125
2018-08-25T10:20:18.750Z,125
2018-08-25T10:21:28.896Z,130
2018-08-25T10:22:39.014Z,125
2018-08-25T10:23:49.788Z,125
2018-08-25T10:24:59.905Z,125
2018-08-25T10:26:10.519Z,125
2018-08-25T10:27:20.623Z,120
2018-08-25T10:28:30.794Z,120
2018-08-25T10:29:40.955Z,120
2018-08-25T10:30:50.775Z,120
2018-08-25T10:32:00.930Z,120
2018-08-25T10:33:11.064Z,120
2018-08-25T10:34:21.189Z,120
2018-08-25T10:35:31.380Z,120
2018-08-25T10:36:41.519Z,120
2018-08-25T10:37:51.370Z,120
2018-08-25T10:39:01.474Z,120
2018-08-25T10:40:11.285Z,120
2018-08-25T10:41:21.386Z,120
2018-08-25T10:42:31.530Z,120
2018-08-25T10:43:41.629Z,125
2018-08-25T10:44:51.720Z,125
2018-08-25T10:46:01.827Z,125
2018-08-25T10:47:11.730Z,130
2018-08-25T10:48:22.371Z,130
2018-08-25T10:49:32.460Z,140
2018-08-25T10:50:42.587Z,145
2018-08-25T10:51:52.691Z,150
2018-08-25T10:53:03.004Z,160
2018-08-25T10:54:13.578Z,165
2018-08-25T10:55:23.819Z,170
2018-08-25T10:56:33.660Z,170
2018-08-25T10:57:43.777Z,175
2018-08-25T10:58:53.858Z,175
2018-08-25T11:00:03.779Z,175
2018-08-25T11:01:14.559Z,175
2018-08-25T11:02:24.763Z,175
2018-08-25T11:03:35.008Z,180
2018-08-25T11:04:44.960Z,185
2018-08-25T11:05:55.053Z,190
2018-08-25T11:07:05.226Z,195
2018-08-25T11:08:15.370Z,195
2018-08-25T11:09:25.486Z,190
2018-08-25T11:10:35.612Z,185
2018-08-25T11:11:45.433Z,180
2018-08-25T11:12:55.511Z,175
2018-08-25T11:14:05.827Z,175
2018-08-25T11:15:15.950Z,170
2018-08-25T11:16:26.350Z,165
2018-08-25T11:17:36.201Z,160
2018-08-25T11:18:46.024Z,160
2018-08-25T11:19:55.832Z,155
2018-08-25T11:21:05.928Z,155
2018-08-25T11:22:15.587Z,155
2018-08-25T11:23:25.679Z,150
2018-08-25T11:24:35.805Z,145
2018-08-25T11:25:45.897Z,140
2018-08-25T11:26:56.017Z,140
2018-08-25T11:28:06.164Z,135
2018-08-25T11:29:16.573Z,135
2018-08-25T11:30:26.717Z,135
2018-08-25T11:31:36.848Z,140
2018-08-25T11:32:47.018Z,140
2018-08-25T11:33:57.101Z,140
2018-08-25T11:35:07.249Z,140
2018-08-25T11:36:17.347Z,140
2018-08-25T11:37:28.355Z,140
2018-08-25T11:38:37.973Z,135
2018-08-25T11:39:48.339Z,135
2018-08-25T11:40:58.188Z,140
2018-08-25T11:42:08.292Z,140
2018-08-25T11:43:18.429Z,150
2018-08-25T11:44:28.521Z,150
2018-08-25T11:45:38.329Z,150
2018-08-25T11:46:48.437Z,155
2018-08-25T11:47:58.580Z,155
2018-08-25T11:49:08.692Z,155
2018-08-25T11:50:18.561Z,155
2018-08-25T11:51:28.482Z,155
2018-08-25T11:52:38.582Z,155
2018-08-25T11:53:48.676Z,155
2018-08-25T11:54:58.509Z,155
2018-08-25T11:56:08.637Z,155
2018-08-25T11:57:18.753Z,155
2018-08-25T11:58:28.862Z,155
2018-08-25T11:59:38.670Z,150
2018-08-25T12:00:48.778Z,150
2018-08-25T12:01:58.874Z,150
2018-08-25T12:03:11.258Z,150
2018-08-25T12:04:21.372Z,155
2018-08-25T12:05:31.740Z,165
2018-08-25T12:06:42.065Z,175
2018-08-25T12:07:52.169Z,185
2018-08-25T12:09:02.291Z,190
2018-08-25T12:10:12.382Z,205
2018-08-25T12:11:22.483Z,215
2018-08-25T12:12:32.608Z,220
2018-08-25T12:13:42.679Z,225
2018-08-25T12:14:52.787Z,230
2018-08-25T12:16:03.338Z,230
2018-08-25T12:17:13.410Z,225
2018-08-25T12:18:23.497Z,225
2018-08-25T12:19:33.581Z,220
2018-08-25T12:20:43.402Z,205
2018-08-25T12:21:53.507Z,190
2018-08-25T12:23:03.341Z,180
2018-08-25T12:24:13.913Z,170
2018-08-25T12:25:24.165Z,160
2018-08-25T12:26:34.320Z,155
2018-08-25T12:27:44.416Z,150
2018-08-25T12:28:54.559Z,150
2018-08-25T12:30:04.714Z,155
2018-08-25T12:31:14.845Z,160
2018-08-25T12:32:24.959Z,155
2018-08-25T12:33:35.563Z,155
2018-08-25T12:34:45.800Z,150
2018-08-25T12:35:55.919Z,155
2018-08-25T12:37:06.248Z,160
2018-08-25T12:38:15.839Z,170
2018-08-25T12:39:26.193Z,175
2018-08-25T12:40:36.043Z,175
2018-08-25T12:41:46.133Z,170
2018-08-25T12:42:56.226Z,170
2018-08-25T12:44:06.595Z,165
2018-08-25T12:45:17.332Z,165
2018-08-25T12:46:27.494Z,165
2018-08-25T12:47:37.594Z,160
2018-08-25T12:48:47.854Z,155
2018-08-25T12:49:57.765Z,155
2018-08-25T12:51:07.864Z,155
2018-08-25T12:52:17.693Z,150
2018-08-25T12:53:27.538Z,150
2018-08-25T12:54:37.357Z,145
2018-08-25T12:55:47.474Z,145
2018-08-25T12:56:57.589Z,140
2018-08-25T12:58:07.821Z,140
2018-08-25T12:59:18.463Z,140
2018-08-25T13:00:28.674Z,140
2018-08-25T13:01:39.103Z,135
2018-08-25T13:02:49.233Z,130
2018-08-25T13:03:59.377Z,130
2018-08-25T13:05:09.740Z,130
2018-08-25T13:06:19.950Z,130
2018-08-25T13:07:30.362Z,130
2018-08-25T13:08:40.594Z,130
2018-08-25T13:09:50.160Z,130
2018-08-25T13:11:00.613Z,130
2018-08-25T13:12:10.762Z,130
2018-08-25T13:13:20.757Z,125
2018-08-25T13:14:30.889Z,120
2018-08-25T13:15:40.987Z,120
2018-08-25T13:16:51.150Z,120
2018-08-25T13:18:01.256Z,120
2018-08-25T13:19:11.471Z,125
2018-08-25T13:20:21.584Z,125
2018-08-25T13:21:31.393Z,125
2018-08-25T13:22:41.210Z,125
2018-08-25T13:23:50.866Z,120
2018-08-25T13:25:01.342Z,120
2018-08-25T13:26:11.478Z,120
2018-08-25T13:27:21.676Z,120
2018-08-25T13:28:31.514Z,120
2018-08-25T13:29:41.638Z,120
2018-08-25T13:30:52.038Z,120
2018-08-25T13:32:02.250Z,120
2018-08-25T13:33:12.340Z,120
2018-08-25T13:34:22.162Z,120
2018-08-25T13:35:32.306Z,115
2018-08-25T13:36:42.399Z,120
2018-08-25T13:37:52.512Z,120
2018-08-25T13:39:02.742Z,120
2018-08-25T13:40:12.971Z,120
2018-08-25T13:41:23.080Z,115
2018-08-25T13:42:33.181Z,115
2018-08-25T13:43:43.204Z,115
2018-08-25T13:44:53.102Z,115
2018-08-25T13:46:03.252Z,110
2018-08-25T13:47:13.669Z,110
2018-08-25T13:48:23.780Z,110
2018-08-25T13:49:33.899Z,105
2018-08-25T13:50:44.040Z,110
2018-08-25T13:51:54.136Z,105
2018-08-25T13:53:04.243Z,105
2018-08-25T13:54:14.123Z,105
2018-08-25T13:55:24.213Z,105
2018-08-25T13:56:33.823Z,110
2018-08-25T13:57:43.921Z,115
2018-08-25T13:58:53.799Z,115
2018-08-25T14:00:03.923Z,120
2018-08-25T14:01:14.082Z,125
2018-08-25T14:02:23.928Z,130
2018-08-25T14:03:34.045Z,130
2018-08-25T14:04:44.244Z,135
2018-08-25T14:05:54.080Z,130
2018-08-25T14:07:04.237Z,130
2018-08-25T14:08:14.954Z,130
2018-08-25T14:09:25.150Z,135
2018-08-25T14:10:35.317Z,135
2018-08-25T14:11:45.405Z,135
2018-08-25T14:12:55.242Z,135
2018-08-25T14:14:05.607Z,140
2018-08-25T14:15:15.706Z,135
2018-08-25T14:16:26.342Z,135
2018-08-25T14:17:36.519Z,130
2018-08-25T14:18:46.349Z,120
2018-08-25T14:19:56.442Z,115
2018-08-25T14:21:07.409Z,115
2018-08-25T14:22:17.498Z,110
2018-08-25T14:23:27.607Z,110
2018-08-25T14:24:37.706Z,105
2018-08-25T14:25:47.801Z,105
2018-08-25T14:26:57.889Z,105
2018-08-25T14:28:07.717Z,105
2018-08-25T14:29:17.798Z,105
2018-08-25T14:30:27.651Z,100
2018-08-25T14:31:38.327Z,100
2018-08-25T14:32:48.451Z,100
2018-08-25T14:33:58.281Z,95
2018-08-25T14:35:08.400Z,95
2018-08-25T14:36:18.468Z,95
2018-08-25T14:37:28.589Z,95
2018-08-25T14:38:38.694Z,105
2018-08-25T14:39:48.810Z,110
2018-08-25T14:40:58.934Z,115
2018-08-25T14:42:08.533Z,120
2018-08-25T14:43:18.136Z,115
2018-08-25T14:44:28.221Z,120
2018-08-25T14:45:38.342Z,120
2018-08-25T14:46:48.439Z,120
2018-08-25T14:47:58.532Z,115
2018-08-25T14:49:08.644Z,115
2018-08-25T14:50:18.838Z,115
2018-08-25T14:51:28.977Z,120
2018-08-25T14:52:38.910Z,120
2018-08-25T14:53:48.752Z,115
2018-08-25T14:54:58.591Z,110
2018-08-25T14:56:08.697Z,110
2018-08-25T14:57:18.599Z,110
2018-08-25T14:58:28.715Z,110
2018-08-25T14:59:38.812Z,115
2018-08-25T15:00:48.906Z,120
2018-08-25T15:01:59.044Z,130
2018-08-25T15:03:09.143Z,135
2018-08-25T15:04:18.983Z,140
2018-08-25T15:05:29.084Z,130
2018-08-25T15:06:38.906Z,135
2018-08-25T15:07:49.015Z,135
2018-08-25T15:08:59.104Z,140
2018-08-25T15:10:09.216Z,145
2018-08-25T15:11:19.329Z,150
2018-08-25T15:12:29.191Z,150
2018-08-25T15:13:39.374Z,145
2018-08-25T15:14:49.506Z,135
2018-08-25T15:16:00.036Z,125
2018-08-25T15:17:09.934Z,120
2018-08-25T15:18:19.802Z,115
2018-08-25T15:19:29.875Z,110
2018-08-25T15:20:40.012Z,110
2018-08-25T15:21:50.148Z,105
2018-08-25T15:23:00.854Z,95
2018-08-25T15:24:10.977Z,90
2018-08-25T15:25:21.076Z,85
2018-08-25T15:26:30.963Z,80
2018-08-25T15:27:41.091Z,75
2018-08-25T15:28:51.212Z,75
2018-08-25T15:30:01.335Z,75
2018-08-25T15:31:11.415Z,75
2018-08-25T15:32:21.496Z,75
2018-08-25T15:33:31.597Z,75
2018-08-25T15:34:41.703Z,75
2018-08-25T15:35:51.837Z,80
2018-08-25T15:37:02.014Z,80
2018-08-25T15:38:12.121Z,80
2018-08-25T15:39:22.222Z,80
2018-08-25T15:40:32.616Z,75
2018-08-25T15:41:42.700Z,75
2018-08-25T15:42:52.808Z,70
2018-08-25T15:44:02.580Z,70
2018-08-25T15:45:12.415Z,65
2018-08-25T15:46:22.554Z,60
2018-08-25T15:47:32.654Z,60
2018-08-25T15:48:42.784Z,60
2018-08-25T15:49:52.924Z,55
2018-08-25T15:51:03.037Z,50
2018-08-25T15:52:13.639Z,50
2018-08-25T15:53:23.482Z,45
2018-08-25T15:54:33.576Z,45
2018-08-25T15:55:43.702Z,45
2018-08-25T15:56:53.810Z,45
2018-08-25T15:58:04.522Z,40
2018-08-25T15:59:14.703Z,35
2018-08-25T16:00:24.807Z,35
2018-08-25T16:01:34.966Z,35
2018-08-25T16:02:45.053Z,35
2018-08-25T16:03:55.158Z,35
2018-08-25T16:05:04.721Z,40
2018-08-25T16:06:15.196Z,40
2018-08-25T16:07:25.042Z,40
2018-08-25T16:08:34.871Z,40
2018-08-25T16:09:45.018Z,40
2018-08-25T16:10:55.199Z,45
2018-08-25T16:12:06.404Z,50
2018-08-25T16:13:16.651Z,50
2018-08-25T16:14:26.750Z,50
2018-08-25T16:15:36.845Z,50
2018-08-25T16:16:46.975Z,50
2018-08-25T16:17:57.053Z,50
2018-08-25T16:19:07.274Z,50
2018-08-25T16:20:17.392Z,50
2018-08-25T16:21:27.475Z,50
2018-08-25T16:22:37.577Z,45
2018-08-25T16:23:47.936Z,40
2018-08-25T16:24:58.044Z,35
2018-08-25T16:26:08.213Z,35
2018-08-25T16:27:18.591Z,30
2018-08-25T16:28:28.700Z,30
2018-08-25T16:29:38.852Z,25
2018-08-25T16:30:48.957Z,25
2018-08-25T16:31:59.088Z,25
2018-08-25T16:33:09.177Z,20
2018-08-25T16:34:19.027Z,20
2018-08-25T16:35:29.145Z,15
2018-08-25T16:36:39.363Z,10
2018-08-25T16:37:49.454Z,10
2018-08-25T16:38:59.528Z,10
2018-08-25T16:40:09.624Z,10
2018-08-25T16:41:19.748Z,10
2018-08-25T16:42:29.567Z,5
2018-08-25T16:43:39.651Z,5
2018-08-25T16:44:49.737Z,5
2018-08-25T16:45:59.824Z,5
2018-08-25T16:47:10.518Z,5
2018-08-25T16:48:20.655Z,10
2018-08-25T16:49:31.331Z,10
2018-08-25T16:50:41.591Z,10
2018-08-25T16:51:51.689Z,10
2018-08-25T16:53:01.878Z,10
2018-08-25T16:54:12.042Z,10
2018-08-25T16:55:22.675Z,10
2018-08-25T16:56:32.515Z,10
2018-08-25T16:57:42.764Z,10
2018-08-25T16:58:52.871Z,10
2018-08-25T17:00:02.952Z,10
2018-08-25T17:01:13.049Z,10
2018-08-25T17:02:23.335Z,10
2018-08-25T17:03:33.453Z,10
2018-08-25T17:04:43.552Z,10
2018-08-25T17:05:53.713Z,10
2018-08-25T17:07:03.571Z,10
2018-08-25T17:08:13.414Z,10
2018-08-25T17:09:23.514Z,10
2018-08-25T17:10:33.635Z,5